Aérodrome :
LOGIN :

S'inscrire | Disclaimer

   EN    FR    IT 

 










Légende :    VFR   VFR Marginal   IFR   IFR Intensif   IFR Très Intensif
Visi : 
Plafond : 
>= 8 km
>= 3000ft
5 à 8 km
1000 à 3000 ft
1500m à 5 km
500 à 1000 ft
800 à 1500m
200 à 500 ft
< 800m
< 200 ft
Symboles :   Orages  Brouillard  Fortes neiges  Fortes précipitations  Vent > 20 kt
SIGMETs :   Divers  Orages  Givrage  Turbulence  Onde Orograph.  Cendres Volcan.






- Altitude de l'aérodrome : 2945 ft
- Code IATA : RGS


LEBG - Burgos

DERNIER METAR :
  • 190430Z AUTO 07003KT 0200 0100 R22/0350N R04/0175N FZFG VV001 M01/M01 Q1017

METARs EXPIRÉS :
  • 190400Z AUTO 17002KT 0150 0050 R22/0300N R04/0125N FZFG VV001 M01/M01 Q1017
  • 190330Z AUTO VRB02KT 0150 0050 R22/0300N R04/0125N FZFG VV001 M01/M01 Q1017
  • 190300Z AUTO 23005KT 9000 0600 BCFG SCT002 M02/M03 Q1017
  • 190230Z AUTO VRB01KT 9999 NCD M01/M01 Q1017
  • 190200Z AUTO 06004KT 9999 NCD M01/M01 Q1017

TAF TAF LEBG
Valide du 19 à 03h jusqu'au 19 à 12h UTC


190200Z 1903/1912 05005KT CAVOK
PROB40
TEMPO 1903/1909 2000 BR BKN006
PROB30
TEMPO 1903/1909 0150 FG VV001
BECMG 1907/1908 22010KT



MET'MAP, la Météo Aéronautique d'un coup d'oeil ! - Copyright ORBIFLY Décembre 2007 - Disclaimer

ORBIFLY MET'MAP TEAM :

Programmation & Développement : Alexandra Zaïnal
Conception & Développement : Baudouin d'Aumeries
Co-Programmation & Développement : Marc-Olivier Méhu
Soutien technique & logistique : Manuel Goepfert

Contact : metmap@orbifly.com




SOURCES & CREDITS :

   NOAA